Historyczne dane pomiarowe

Dodano dane terminowe – wersja testowa.

Dane z okresu 1951-2019

Wersja bazy: 1.34 [2019-03-16, lista zmian], aktualizacja planowana na 2019-04-15

Dane meteo z obszaru Polski uzyskane na podstawie danych udostępnionych przez Instytut Meteorologii i Gospodarki Wodnej – Państwowy Instytut Badawczy.

 

Wybierz Datę:    

       

TemperaturaWilgotnośćWiatrCiśnienieOpadyŚniegCzas trwania zjawisk
 Stacja t tx tn tng RH VA  wxwx mslp ppp RRR   cm mm wxwxwxwxwxwxwx
1961-08-14 13.1 18.2 9.3- 87.3- 6.3 0.7---- 0.0------------
1961-08-13 12.8 17.6 9.8- 86.5- 5.0 2.7---- 0.0------------
1961-08-12 17.3 20.2 14.4- 88.5- 5.0 1.7---- 0.8------------
1961-08-11 17.0 20.2 14.8- 93.5- 5.7 0.3---- 2.3------------
1961-08-10 18.0 23.3 11.3- 84.8- 5.7 1.3---- 4.5------------
1961-08-09 16.8 23.1 13.4- 81.3- 2.3 2.3---- 0.0------------
1961-08-08 17.0 20.4 10.4- 73.8- 2.7 1.7---- 0.2------------
1961-08-07 14.1 18.5 12.7- 94.3- 7.0 1.7---- 6.9------------
1961-08-06 19.3 25.8 15.9- 77.5- 3.0 1.7---- 2.8------------
1961-08-05 17.5 22.4 13.3- 86.5- 4.7 2.7---- 12.6------------
1961-08-04 13.6 15.1 9.2- 95.5- 8.0 3.7---- 4.6------------
1961-08-03 12.5 16.4 11.5- 94.5- 6.7 1.7---- 5.6------------
1961-08-02 15.2 20.5 9.5- 87.8- 6.0 0.7---- 9.8------------
1961-08-01 13.3 16.9 12.2- 95.3- 7.0 2.7---- 3.1------------
1961-07-31 13.4 14.9 12.3- 93.3- 8.0 5.0---- 55.2------------
1961-07-30 14.3 17.4 11.2- 91.5- 6.0 1.7---- 0.0------------
1961-07-29 14.1 17.2 10.9- 83.5- 6.7 2.0---- 0.0------------
1961-07-28 13.2 14.6 12.4- 88.5- 7.3 1.0---- 1.8------------
1961-07-27 15.4 18.9 14.0- 90.5- 7.3 2.7---- 1.1------------
1961-07-26 16.0 21.6 13.6- 90.0- 6.7 1.7---- 3.2------------
1961-07-25 15.0 17.3 11.8- 83.0- 6.0 3.7---- 0.4------------
1961-07-24 13.4 16.5 11.6- 84.5- 7.0 4.0---- 0.5------------
1961-07-23 13.5 16.5 12.7- 91.3- 8.0 2.7---- 2.2------------
1961-07-22 14.9 17.4 12.2- 86.8- 8.0 2.3---- 0.5------------
1961-07-21 14.5 18.4 13.4- 91.3- 7.3 2.3---- 8.6------------
1961-07-20 15.4 20.1 12.2- 81.3- 6.0 0.7---- 2.8------------
1961-07-19 16.3 20.9 12.1- 71.3- 6.7 3.3---- 0.0------------
1961-07-18 14.3 19.5 10.8- 92.8- 7.0 1.7---- 11.8------------
1961-07-17 14.5 19.3 10.7- 86.5- 6.3 0.7---- 0.0------------
1961-07-16 15.7 18.9 12.5- 85.5- 7.3 2.3---- 2.6------------
1961-07-15 17.1 21.9 11.9- 80.8- 3.7 1.3---- 3.9------------
1961-07-14 12.5 16.5 12.2- 90.3- 6.7 3.3---- 0.0------------
1961-07-13 19.3 27.3 13.5- 78.5- 4.7 2.7---- 18.9------------
1961-07-12 17.7 22.9 14.6- 84.3- 5.7 0.7---- 0.0------------
1961-07-11 15.7 20.0 10.8- 80.8- 4.7 2.3---- 3.8------------
1961-07-10 13.0 16.4 10.9- 80.3- 4.3 2.3---- 1.4------------
1961-07-09 12.2 15.9 11.4- 94.0- 7.7 2.0---- 21.2------------
1961-07-08 15.6 20.3 10.3- 84.8- 6.7 1.3---- 2.2------------
1961-07-07 12.1 17.7 9.4- 84.5- 5.7 3.7---- 0.0------------
1961-07-06 11.8 16.7 8.8- 87.5- 6.7 2.7---- 7.8------------
1961-07-05 12.3 16.4 10.5- 74.0- 4.3 5.0---- 0.0------------
1961-07-04 15.2 18.3 11.6- 85.0- 7.0 4.3---- 2.3------------
1961-07-03 20.7 31.5 13.6- 71.0- 6.3 3.0---- 0.3------------
1961-07-02 19.7 29.7 9.4- 69.8- 5.3 1.0---- 0.0------------
1961-07-01 17.1 26.8 5.5- 78.5- 0.0 0.7---- 0.0------------
1961-06-30 16.3 24.1 10.8- 78.0- 0.3 2.3---- 0.0------------
1961-06-29 15.2 20.8 11.6- 78.3- 4.0 3.3---- 0.0------------
1961-06-28 14.2 18.2 10.9- 75.3- 3.0 5.7---- 0.0------------
1961-06-27 19.5 26.0 15.6- 76.0- 6.0 3.0---- 11.6------------
1961-06-26 20.3 26.8 11.3- 70.8- 0.7 1.3---- 0.0------------
1961-06-25 20.9 26.6 14.7- 61.5- 1.0 3.0---- 0.0------------
1961-06-24 18.7 23.0 12.7- 71.8- 3.7 2.7---- 0.0------------
1961-06-23 16.8 20.5 8.6- 71.3- 3.0 2.0---- 0.0------------
1961-06-22 15.3 21.4 6.7- 74.3- 3.0 2.0---- 0.0------------
1961-06-21 12.8 19.5 8.0- 78.3- 4.0 2.0---- 0.0------------
1961-06-20 13.4 19.2 8.8- 74.3- 3.0 3.7---- 0.0------------
1961-06-19 13.4 19.5 10.4- 80.3- 4.7 3.7---- 0.0------------
1961-06-18 18.9 25.4 15.6- 75.0- 3.7 3.7---- 1.7------------
1961-06-17 17.7 22.8 11.2- 79.8- 4.0 2.0---- 0.7------------
1961-06-16 13.1 17.7 10.9- 84.0- 5.7 3.0---- 0.0------------
312.8 ms

 

Źródłem pochodzenia danych jest Instytut Meteorologii i Gospodarki Wodnej – Państwowy Instytut Badawczy. Dane Instytutu Meteorologii i Gospodarki Wodnej – Państwowego Instytutu Badawczego zostały przetworzone.

Dane źródłowe można odnaleźć na stronie https://dane.imgw.pl